EW1047 Weather Reports


Display with metric or nautical units.
time (UTC)temp
F
wind
direction
speed
MPH
gust
MPH
rain 1hr
in
rain 24hr
in
rain mn
in
humidity
%
barometer
mb
20210923211205 80 337 2.0 7.0 0.00 0.00 0.00 16 1023.8
20210923210704 80 289 4.0 10.0 0.00 0.00 0.00 16 1023.8
20210923210204 80 311 2.0 12.0 0.00 0.00 0.00 16 1023.8
20210923204705 82 299 3.0 9.0 0.00 0.00 0.00 15 1024.8
20210923204205 82 290 2.0 10.0 0.00 0.00 0.00 15 1024.8
20210923203705 81 289 5.0 12.0 0.00 0.00 0.00 16 1024.8
20210923203204 81 289 2.0 9.0 0.00 0.00 0.00 15 1024.8
20210923201704 81 326 3.0 8.0 0.00 0.00 0.00 16 1024.8
20210923201205 80 331 3.0 12.0 0.00 0.00 0.00 16 1024.8
20210923200705 79 313 2.0 12.0 0.00 0.00 0.00 16 1024.8
20210923200204 79 333 2.0 12.0 0.00 0.00 0.00 16 1024.8
20210923194705 79 322 2.0 6.0 0.00 0.00 0.00 16 1024.8
20210923194205 78 350 5.0 10.0 0.00 0.00 0.00 17 1024.8
20210923193705 78 349 2.0 7.0 0.00 0.00 0.00 17 1024.8
20210923193205 77 321 3.0 12.0 0.00 0.00 0.00 17 1024.8
20210923191705 77 333 3.0 7.0 0.00 0.00 0.00 18 1025.2
20210923191204 77 329 6.0 12.0 0.00 0.00 0.00 17 1025.2
20210923190704 77 357 5.0 10.0 0.00 0.00 0.00 17 1025.2
20210923190205 77 315 5.0 13.0 0.00 0.00 0.00 18 1025.4
20210923184704 76 4 6.0 10.0 0.00 0.00 0.00 18 1025.5
20210923184205 76 3 4.0 10.0 0.00 0.00 0.00 18 1025.5
20210923183704 76 2 5.0 12.0 0.00 0.00 0.00 18 1025.5
20210923183204 75 9 5.0 14.0 0.00 0.00 0.00 18 1025.7
20210923181704 75 4 4.0 13.0 0.00 0.00 0.00 20 1026.1
20210923181204 76 23 4.0 10.0 0.00 0.00 0.00 19 1026.1
20210923180704 75 334 1.0 10.0 0.00 0.00 0.00 21 1026.1
20210923180204 75 13 3.0 10.0 0.00 0.00 0.00 21 1027.3
20210923174704 73 320 1.0 6.0 0.00 0.00 0.00 23 1027.3
20210923174204 73 10 2.0 6.0 0.00 0.00 0.00 22 1027.3
20210923173705 73 321 1.0 3.0 0.00 0.00 0.00 24 1027.3
20210923173205 73 335 3.0 6.0 0.00 0.00 0.00 24 1027.3
20210923171704 72 306 2.0 10.0 0.00 0.00 0.00 26 1027.3
20210923171204 71 334 2.0 6.0 0.00 0.00 0.00 26 1027.3
20210923170704 71 302 3.0 10.0 0.00 0.00 0.00 26 1027.3
20210923170204 70 8 3.0 7.0 0.00 0.00 0.00 27 1027.3
20210923164704 70 300 2.0 6.0 0.00 0.00 0.00 29 1027.5
20210923164204 69 310 1.0 3.0 0.00 0.00 0.00 30 1027.5
20210923163704 68 292 2.0 5.0 0.00 0.00 0.00 30 1027.5
20210923163204 67 263 2.0 6.0 0.00 0.00 0.00 32 1027.5
20210923161704 66 300 3.0 5.0 0.00 0.00 0.00 34 1027.5
20210923161205 66 303 1.0 3.0 0.00 0.00 0.00 34 1027.5
20210923160705 66 349 2.0 6.0 0.00 0.00 0.00 33 1027.5
20210923160205 66 323 2.0 7.0 0.00 0.00 0.00 34 1027.5
20210923154704 66 268 3.0 6.0 0.00 0.00 0.00 34 1027.4
20210923154205 66 301 1.0 3.0 0.00 0.00 0.00 35 1027.4
20210923153705 66 279 2.0 6.0 0.00 0.00 0.00 36 1027.4
20210923153204 65 267 1.0 5.0 0.00 0.00 0.00 36 1027.4
20210923151705 64 240 1.0 3.0 0.00 0.00 0.00 40 1027.4
20210923151204 63 316 1.0 3.0 0.00 0.00 0.00 40 1027.4
20210923150704 62 345 1.0 3.0 0.00 0.00 0.00 41 1027.4
20210923150205 62 348 0.0 5.0 0.00 0.00 0.00 41 1027.4
20210923144704 60 355 1.0 3.0 0.00 0.00 0.00 43 1027.1
20210923144204 60 14 2.0 3.0 0.00 0.00 0.00 44 1027.1
20210923143704 60 3 1.0 3.0 0.00 0.00 0.00 45 1027.1
20210923143204 59 0 1.0 3.0 0.00 0.00 0.00 47 1027.1
20210923141704 55 105 0.0 0.0 0.00 0.00 0.00 53 1027.1
20210923141205 53 105 0.0 0.0 0.00 0.00 0.00 56 1027.1
20210923140704 52 105 0.0 0.0 0.00 0.00 0.00 56 1027.1
20210923140204 51 105 0.0 0.0 0.00 0.00 0.00 56 1027.1
20210923134704 49 105 0.0 0.0 0.00 0.00 0.00 56 1027.1
20210923134204 49 105 0.0 0.0 0.00 0.00 0.00 56 1027.1
20210923133704 49 105 0.0 0.0 0.00 0.00 0.00 56 1027.1
20210923133204 49 105 0.0 0.0 0.00 0.00 0.00 57 1027.1
20210923131704 48 105 0.0 0.0 0.00 0.00 0.00 59 1027.1
20210923131204 48 105 0.0 0.0 0.00 0.00 0.00 58 1027.1
20210923130704 48 105 0.0 0.0 0.00 0.00 0.00 58 1027.1
20210923130204 48 105 0.0 0.0 0.00 0.00 0.00 58 1027.1
20210923124704 49 105 0.0 1.0 0.00 0.00 0.00 58 1027.3
20210923124203 49 105 0.0 0.0 0.00 0.00 0.00 58 1027.3
20210923123704 49 105 0.0 0.0 0.00 0.00 0.00 58 1027.3
20210923123205 49 105 0.0 0.0 0.00 0.00 0.00 58 1027.3
20210923121704 49 105 0.0 0.0 0.00 0.00 0.00 58 1027.3
20210923121205 49 105 0.0 1.0 0.00 0.00 0.00 58 1027.3
20210923120704 49 105 1.0 2.0 0.00 0.00 0.00 58 1027.3
20210923120204 49 105 0.0 0.0 0.00 0.00 0.00 57 1027.3
20210923114704 50 105 1.0 2.0 0.00 0.00 0.00 57 1027.3
20210923114204 50 105 0.0 1.0 0.00 0.00 0.00 57 1027.3
20210923113704 50 105 1.0 3.0 0.00 0.00 0.00 58 1027.3
20210923113204 49 107 0.0 5.0 0.00 0.00 0.00 58 1027.3
20210923111704 49 109 2.0 3.0 0.00 0.00 0.00 58 1027.3
20210923111204 49 109 0.0 1.0 0.00 0.00 0.00 59 1027.3
20210923110704 49 109 1.0 3.0 0.00 0.00 0.00 59 1027.3
20210923110204 49 109 0.0 3.0 0.00 0.00 0.00 59 1027.3
20210923104704 49 111 1.0 3.0 0.00 0.00 0.00 61 1027.6
20210923104204 49 111 0.0 1.0 0.00 0.00 0.00 58 1027.6
20210923103704 49 111 0.0 2.0 0.00 0.00 0.00 58 1027.6
20210923103205 50 111 2.0 3.0 0.00 0.00 0.00 57 1027.6
20210923101704 50 111 1.0 3.0 0.00 0.00 0.00 56 1027.6
20210923101204 50 113 0.0 0.0 0.00 0.00 0.00 55 1027.6
20210923100704 51 113 1.0 2.0 0.00 0.00 0.00 55 1027.6
20210923100204 51 113 0.0 0.0 0.00 0.00 0.00 54 1027.6
20210923094704 52 113 0.0 0.0 0.00 0.00 0.00 52 1027.9
20210923094204 52 113 0.0 0.0 0.00 0.00 0.00 51 1027.9
20210923093704 53 113 0.0 0.0 0.00 0.00 0.00 51 1027.9
20210923093204 53 113 0.0 0.0 0.00 0.00 0.00 51 1027.9
20210923091704 54 113 0.0 0.0 0.00 0.00 0.00 50 1027.9
20210923091203 54 113 0.0 0.0 0.00 0.00 0.00 50 1027.9
20210923090704 54 113 0.0 0.0 0.00 0.00 0.00 50 1027.9
20210923090205 54 113 0.0 3.0 0.00 0.00 0.00 50 1027.9
20210923084704 55 250 0.0 0.0 0.00 0.00 0.00 50 1027.9
20210923084204 55 250 0.0 0.0 0.00 0.00 0.00 48 1028.2
20210923083704 55 250 0.0 0.0 0.00 0.00 0.00 47 1028.2
20210923083204 56 250 0.0 0.0 0.00 0.00 0.00 47 1028.2
20210923081704 57 250 0.0 0.0 0.00 0.00 0.00 45 1028.2
20210923081204 57 251 0.0 0.0 0.00 0.00 0.00 45 1028.2
20210923080704 58 251 0.0 0.0 0.00 0.00 0.00 45 1028.2
20210923080204 58 251 0.0 3.0 0.00 0.00 0.00 45 1028.3
20210923074704 58 250 2.0 3.0 0.00 0.00 0.00 46 1028.3
20210923074204 58 240 2.0 6.0 0.00 0.00 0.00 46 1028.3
20210923073704 58 257 3.0 6.0 0.00 0.00 0.00 46 1028.3
20210923073204 57 266 3.0 10.0 0.00 0.00 0.00 46 1028.3
20210923071704 56 263 3.0 7.0 0.00 0.00 0.00 48 1028.3
20210923071204 56 267 3.0 6.0 0.00 0.00 0.00 47 1028.3
20210923070704 55 274 2.0 6.0 0.00 0.00 0.00 48 1028.3
20210923070204 55 267 3.0 7.0 0.00 0.00 0.00 49 1028.3
20210923064704 54 236 0.0 2.0 0.00 0.00 0.00 46 1028.3
20210923064204 54 225 0.0 1.0 0.00 0.00 0.00 45 1028.5
20210923063704 54 224 0.0 2.0 0.00 0.00 0.00 45 1028.5
20210923063204 54 248 0.0 1.0 0.00 0.00 0.00 45 1028.5
20210923061704 54 249 0.0 0.0 0.00 0.00 0.00 43 1028.5
20210923061204 54 249 0.0 3.0 0.00 0.00 0.00 43 1028.5
20210923060704 54 251 0.0 0.0 0.00 0.00 0.00 42 1028.5
20210923060205 54 251 0.0 3.0 0.00 0.00 0.00 41 1028.5
20210923054704 55 61 0.0 3.0 0.00 0.00 0.00 39 1028.5
20210923054204 55 128 0.0 0.0 0.00 0.00 0.00 38 1028.5
20210923053704 55 128 0.0 0.0 0.00 0.00 0.00 37 1028.5
20210923053204 55 128 0.0 0.0 0.00 0.00 0.00 37 1028.5
20210923051704 56 128 0.0 0.0 0.00 0.00 0.00 36 1028.5
20210923051204 57 128 0.0 0.0 0.00 0.00 0.00 36 1028.5
20210923050704 57 128 0.0 0.0 0.00 0.00 0.00 36 1028.5
20210923050204 57 128 0.0 5.0 0.00 0.00 0.00 37 1028.5
20210923044703 57 141 1.0 5.0 0.00 0.00 0.00 37 1028.5
20210923044203 57 121 2.0 3.0 0.00 0.00 0.00 37 1028.5
20210923043705 57 114 1.0 3.0 0.00 0.00 0.00 36 1028.5
20210923043205 57 99 1.0 5.0 0.00 0.00 0.00 36 1028.5
20210923041703 58 128 0.0 0.0 0.00 0.00 0.00 36 1028.5
20210923041205 59 128 1.0 3.0 0.00 0.00 0.00 35 1028.5
20210923040704 59 176 0.0 2.0 0.00 0.00 0.00 35 1028.5
20210923040204 60 177 0.0 3.0 0.00 0.00 0.00 35 1028.5
20210923034704 62 192 0.0 0.0 0.00 0.00 0.00 33 1028.3
20210923034204 62 192 0.0 0.0 0.00 0.00 0.00 32 1028.3
20210923033705 63 192 0.0 3.0 0.00 0.00 0.00 33 1028.3
20210923033204 63 192 0.0 2.0 0.00 0.00 0.00 32 1028.4
20210923031703 64 192 0.0 1.0 0.00 0.00 0.00 32 1028.4
20210923031204 64 192 0.0 2.0 0.00 0.00 0.00 32 1028.3
20210923030704 64 192 1.0 3.0 0.00 0.00 0.00 32 1028.3
20210923030204 64 192 1.0 3.0 0.00 0.00 0.00 31 1028.4
20210923024704 64 207 0.0 2.0 0.00 0.00 0.00 31 1028.3
20210923024204 64 213 1.0 7.0 0.00 0.00 0.00 31 1028.3
20210923023704 64 191 1.0 7.0 0.00 0.00 0.00 30 1028.2
20210923023204 64 164 1.0 3.0 0.00 0.00 0.00 30 1028.2
20210923021704 66 142 1.0 2.0 0.00 0.00 0.00 29 1028.2
20210923021204 66 140 0.0 2.0 0.00 0.00 0.00 28 1028.2
20210923020704 67 140 0.0 3.0 0.00 0.00 0.00 28 1028.2
20210923020203 67 150 1.0 3.0 0.00 0.00 0.00 28 1028.3
20210923014704 68 191 0.0 0.0 0.00 0.00 0.00 27 1028.0
20210923014204 69 192 0.0 0.0 0.00 0.00 0.00 26 1028.0
20210923013704 69 192 0.0 0.0 0.00 0.00 0.00 26 1027.5
20210923013204 70 192 0.0 1.0 0.00 0.00 0.00 26 1027.5
20210923011703 71 192 0.0 2.0 0.00 0.00 0.00 25 1028.0
20210923011204 72 192 0.0 0.0 0.00 0.00 0.00 25 1028.0
20210923010704 72 192 0.0 1.0 0.00 0.00 0.00 25 1028.0
20210923010204 72 192 0.0 1.0 0.00 0.00 0.00 25 1028.0
20210923004704 73 192 0.0 2.0 0.00 0.00 0.00 24 1028.2
20210923004204 73 192 1.0 3.0 0.00 0.00 0.00 24 1028.2
20210923003704 73 190 0.0 2.0 0.00 0.00 0.00 24 1028.2
20210923003204 74 190 0.0 5.0 0.00 0.00 0.00 24 1028.2
20210923001704 74 204 1.0 3.0 0.00 0.00 0.00 24 1028.2
20210923001203 74 214 1.0 6.0 0.00 0.00 0.00 24 1028.7
20210923000704 75 231 3.0 7.0 0.00 0.00 0.00 24 1028.7
20210923000205 75 213 3.0 7.0 0.00 0.00 0.00 24 1028.7
20210922234704 76 242 2.0 6.0 0.00 0.00 0.00 24 1028.7
20210922234204 76 194 3.0 7.0 0.00 0.00 0.00 23 1028.7
20210922233703 77 186 3.0 7.0 0.00 0.00 0.00 23 1029.0
20210922233204 77 223 4.0 14.0 0.00 0.00 0.00 23 1029.0
20210922231704 77 244 6.0 12.0 0.00 0.00 0.00 23 1029.0
20210922231204 77 200 5.0 13.0 0.00 0.00 0.00 23 1029.5
20210922230704 77 240 4.0 12.0 0.00 0.00 0.00 23 1029.5
20210922230204 77 221 5.0 12.0 0.00 0.00 0.00 23 1029.5
20210922224704 78 301 1.0 7.0 0.00 0.00 0.00 23 1029.5
20210922224203 79 234 6.0 12.0 0.00 0.00 0.00 23 1029.5
20210922223704 79 257 6.0 12.0 0.00 0.00 0.00 23 1029.5
20210922223204 79 279 4.0 12.0 0.00 0.00 0.00 23 1029.5
20210922221704 79 229 6.0 12.0 0.00 0.00 0.00 23 1029.5
20210922221204 78 256 2.0 5.0 0.00 0.00 0.00 24 1029.5
20210922220704 78 264 1.0 6.0 0.00 0.00 0.00 24 1029.9
20210922220204 79 288 2.0 9.0 0.00 0.00 0.00 23 1029.9
20210922214704 79 204 3.0 12.0 0.00 0.00 0.00 23 1030.1
20210922214204 78 274 3.0 12.0 0.00 0.00 0.00 24 1030.1
20210922213704 79 336 2.0 7.0 0.00 0.00 0.00 23 1030.1
20210922213204 79 280 3.0 12.0 0.00 0.00 0.00 24 1030.1
20210922211704 78 256 1.0 9.0 0.00 0.00 0.00 24 1030.7